sensor_id;sensor_type;location;lat;lon;timestamp;pressure;altitude;pressure_sealevel;temperature;humidity
58955;BME280;45815;52.334;5.024;2022-11-20T00:01:40;101439.63;;;-0.53;100.00
58955;BME280;45815;52.334;5.024;2022-11-20T00:04:05;101435.47;;;-0.63;100.00
58955;BME280;45815;52.334;5.024;2022-11-20T00:06:31;101446.69;;;-0.62;100.00
58955;BME280;45815;52.334;5.024;2022-11-20T00:08:58;101444.09;;;-0.62;100.00
58955;BME280;45815;52.334;5.024;2022-11-20T00:11:26;101436.25;;;-0.64;100.00
58955;BME280;45815;52.334;5.024;2022-11-20T00:13:54;101437.25;;;-0.62;100.00
58955;BME280;45815;52.334;5.024;2022-11-20T00:16:22;101446.56;;;-0.64;100.00
58955;BME280;45815;52.334;5.024;2022-11-20T00:18:48;101450.16;;;-0.62;100.00
58955;BME280;45815;52.334;5.024;2022-11-20T00:21:16;101443.09;;;-0.65;100.00
58955;BME280;45815;52.334;5.024;2022-11-20T00:23:42;101444.66;;;-0.67;100.00
58955;BME280;45815;52.334;5.024;2022-11-20T00:26:14;101442.63;;;-0.71;100.00
58955;BME280;45815;52.334;5.024;2022-11-20T00:28:40;101435.56;;;-0.73;100.00
58955;BME280;45815;52.334;5.024;2022-11-20T00:31:13;101441.59;;;-0.73;100.00
58955;BME280;45815;52.334;5.024;2022-11-20T00:33:39;101438.06;;;-0.75;100.00
58955;BME280;45815;52.334;5.024;2022-11-20T00:36:06;101438.06;;;-0.75;100.00
58955;BME280;45815;52.334;5.024;2022-11-20T00:38:33;101438.06;;;-0.75;100.00
58955;BME280;45815;52.334;5.024;2022-11-20T00:41:04;101426.59;;;-0.78;100.00
58955;BME280;45815;52.334;5.024;2022-11-20T00:43:29;101423.91;;;-0.80;100.00
58955;BME280;45815;52.334;5.024;2022-11-20T00:45:59;101422.91;;;-0.82;100.00
58955;BME280;45815;52.334;5.024;2022-11-20T00:48:25;101427.06;;;-0.84;100.00
58955;BME280;45815;52.334;5.024;2022-11-20T00:50:51;101402.94;;;-0.96;100.00
58955;BME280;45815;52.334;5.024;2022-11-20T00:53:16;101423.47;;;-0.86;100.00
58955;BME280;45815;52.334;5.024;2022-11-20T00:55:41;101428.50;;;-0.88;100.00
58955;BME280;45815;52.334;5.024;2022-11-20T00:58:07;101425.03;;;-0.88;100.00
58955;BME280;45815;52.334;5.024;2022-11-20T01:00:32;101420.56;;;-0.91;100.00
58955;BME280;45815;52.334;5.024;2022-11-20T01:02:58;101417.84;;;-0.92;100.00
58955;BME280;45815;52.334;5.024;2022-11-20T01:05:23;101411.47;;;-0.97;100.00
58955;BME280;45815;52.334;5.024;2022-11-20T01:07:48;101412.00;;;-1.01;100.00
58955;BME280;45815;52.334;5.024;2022-11-20T01:10:14;101412.00;;;-1.01;100.00
58955;BME280;45815;52.334;5.024;2022-11-20T01:12:39;101415.38;;;-1.02;100.00
58955;BME280;45815;52.334;5.024;2022-11-20T01:15:05;101421.28;;;-1.03;100.00
58955;BME280;45815;52.334;5.024;2022-11-20T01:17:31;101424.44;;;-1.08;100.00
58955;BME280;45815;52.334;5.024;2022-11-20T01:19:56;101432.72;;;-1.12;100.00
58955;BME280;45815;52.334;5.024;2022-11-20T01:22:22;101431.84;;;-1.12;100.00
58955;BME280;45815;52.334;5.024;2022-11-20T01:24:48;101428.13;;;-1.16;100.00
58955;BME280;45815;52.334;5.024;2022-11-20T01:27:13;101422.19;;;-1.15;100.00
58955;BME280;45815;52.334;5.024;2022-11-20T01:29:38;101419.50;;;-1.16;100.00
58955;BME280;45815;52.334;5.024;2022-11-20T01:32:04;101417.59;;;-1.19;100.00
58955;BME280;45815;52.334;5.024;2022-11-20T01:34:29;101403.47;;;-1.24;100.00
58955;BME280;45815;52.334;5.024;2022-11-20T01:36:55;101398.06;;;-1.27;100.00
58955;BME280;45815;52.334;5.024;2022-11-20T01:39:23;101410.63;;;-1.20;100.00
58955;BME280;45815;52.334;5.024;2022-11-20T01:41:49;101407.03;;;-1.22;100.00
58955;BME280;45815;52.334;5.024;2022-11-20T01:44:47;101412.41;;;-1.31;100.00
58955;BME280;45815;52.334;5.024;2022-11-20T01:47:29;101401.66;;;-1.25;100.00
58955;BME280;45815;52.334;5.024;2022-11-20T01:55:21;101383.97;;;-1.20;100.00
58955;BME280;45815;52.334;5.024;2022-11-20T01:57:48;101376.34;;;-1.31;100.00
58955;BME280;45815;52.334;5.024;2022-11-20T02:00:16;101383.50;;;-1.27;100.00
58955;BME280;45815;52.334;5.024;2022-11-20T02:02:44;101390.91;;;-1.31;100.00
58955;BME280;45815;52.334;5.024;2022-11-20T02:05:22;101379.94;;;-1.40;100.00
58955;BME280;45815;52.334;5.024;2022-11-20T02:07:49;101388.09;;;-1.34;100.00
58955;BME280;45815;52.334;5.024;2022-11-20T02:10:15;101381.38;;;-1.32;100.00
58955;BME280;45815;52.334;5.024;2022-11-20T02:12:41;101376.34;;;-1.31;100.00
58955;BME280;45815;52.334;5.024;2022-11-20T02:15:25;101370.53;;;-1.28;100.00
58955;BME280;45815;52.334;5.024;2022-11-20T02:17:50;101375.69;;;-1.28;100.00
58955;BME280;45815;52.334;5.024;2022-11-20T02:20:15;101384.97;;;-1.30;100.00
58955;BME280;45815;52.334;5.024;2022-11-20T02:23:06;101376.56;;;-1.39;100.00
58955;BME280;45815;52.334;5.024;2022-11-20T02:25:33;101382.56;;;-1.51;100.00
58955;BME280;45815;52.334;5.024;2022-11-20T02:28:00;101369.19;;;-1.35;100.00
58955;BME280;45815;52.334;5.024;2022-11-20T02:30:25;101371.22;;;-1.31;100.00
58955;BME280;45815;52.334;5.024;2022-11-20T02:32:51;101382.94;;;-1.34;100.00
58955;BME280;45815;52.334;5.024;2022-11-20T02:37:48;101369.19;;;-1.35;100.00
58955;BME280;45815;52.334;5.024;2022-11-20T02:40:14;101355.75;;;-1.42;100.00
58955;BME280;45815;52.334;5.024;2022-11-20T02:42:40;101370.06;;;-1.34;100.00
58955;BME280;45815;52.334;5.024;2022-11-20T02:45:06;101356.19;;;-1.36;100.00
58955;BME280;45815;52.334;5.024;2022-11-20T02:47:32;101364.91;;;-1.34;100.00
58955;BME280;45815;52.334;5.024;2022-11-20T02:49:57;101366.94;;;-1.30;100.00
58955;BME280;45815;52.334;5.024;2022-11-20T02:52:23;101358.22;;;-1.32;100.00
58955;BME280;45815;52.334;5.024;2022-11-20T02:54:49;101354.94;;;-1.41;100.00
58955;BME280;45815;52.334;5.024;2022-11-20T02:57:14;101366.25;;;-1.39;100.00
58955;BME280;45815;52.334;5.024;2022-11-20T02:59:40;101355.97;;;-1.39;100.00
58955;BME280;45815;52.334;5.024;2022-11-20T03:02:05;101354.94;;;-1.41;100.00
58955;BME280;45815;52.334;5.024;2022-11-20T03:04:31;101333.56;;;-1.52;100.00
58955;BME280;45815;52.334;5.024;2022-11-20T03:06:56;101357.75;;;-1.38;100.00
58955;BME280;45815;52.334;5.024;2022-11-20T03:09:22;101360.22;;;-1.40;100.00
58955;BME280;45815;52.334;5.024;2022-11-20T03:11:47;101341.31;;;-1.40;100.00
58955;BME280;45815;52.334;5.024;2022-11-20T03:14:13;101342.97;;;-1.41;100.00
58955;BME280;45815;52.334;5.024;2022-11-20T03:16:39;101327.50;;;-1.53;100.00
58955;BME280;45815;52.334;5.024;2022-11-20T03:19:05;101335.56;;;-1.48;100.00
58955;BME280;45815;52.334;5.024;2022-11-20T03:21:32;101327.63;;;-1.51;100.00
58955;BME280;45815;52.334;5.024;2022-11-20T03:23:58;101327.28;;;-1.56;100.00
58955;BME280;45815;52.334;5.024;2022-11-20T03:26:25;101338.38;;;-1.57;100.00
58955;BME280;45815;52.334;5.024;2022-11-20T03:28:52;101326.38;;;-1.56;100.00
58955;BME280;45815;52.334;5.024;2022-11-20T03:31:21;101324.81;;;-1.54;100.00
58955;BME280;45815;52.334;5.024;2022-11-20T03:33:47;101322.13;;;-1.56;100.00
58955;BME280;45815;52.334;5.024;2022-11-20T03:36:14;101308.44;;;-1.66;100.00
58955;BME280;45815;52.334;5.024;2022-11-20T03:38:40;101328.16;;;-1.55;100.00
58955;BME280;45815;52.334;5.024;2022-11-20T03:41:08;101306.69;;;-1.56;100.00
58955;BME280;45815;52.334;5.024;2022-11-20T03:43:34;101317.09;;;-1.54;100.00
58955;BME280;45815;52.334;5.024;2022-11-20T03:45:59;101311.81;;;-1.56;100.00
58955;BME280;45815;52.334;5.024;2022-11-20T03:48:25;101321.09;;;-1.58;100.00
58955;BME280;45815;52.334;5.024;2022-11-20T03:50:52;101305.22;;;-1.64;100.00
58955;BME280;45815;52.334;5.024;2022-11-20T03:53:18;101320.34;;;-1.57;100.00
58955;BME280;45815;52.334;5.024;2022-11-20T03:55:43;101318.41;;;-1.59;100.00
58955;BME280;45815;52.334;5.024;2022-11-20T03:58:09;101320.09;;;-1.60;100.00
58955;BME280;45815;52.334;5.024;2022-11-20T04:00:35;101317.50;;;-1.60;100.00
58955;BME280;45815;52.334;5.024;2022-11-20T04:03:02;101313.38;;;-1.58;100.00
58955;BME280;45815;52.334;5.024;2022-11-20T04:05:28;101303.09;;;-1.58;100.00
58955;BME280;45815;52.334;5.024;2022-11-20T04:07:53;101297.72;;;-1.61;100.00
58955;BME280;45815;52.334;5.024;2022-11-20T04:10:19;101293.25;;;-1.63;100.00
58955;BME280;45815;52.334;5.024;2022-11-20T04:12:44;101296.72;;;-1.63;100.00
58955;BME280;45815;52.334;5.024;2022-11-20T04:15:10;101284.63;;;-1.64;100.00
58955;BME280;45815;52.334;5.024;2022-11-20T04:17:35;101282.34;;;-1.71;100.00
58955;BME280;45815;52.334;5.024;2022-11-20T04:20:01;101283.38;;;-1.69;100.00
58955;BME280;45815;52.334;5.024;2022-11-20T04:22:26;101281.72;;;-1.68;100.00
58955;BME280;45815;52.334;5.024;2022-11-20T04:24:52;101284.28;;;-1.68;100.00
58955;BME280;45815;52.334;5.024;2022-11-20T04:27:17;101284.16;;;-1.70;100.00
58955;BME280;45815;52.334;5.024;2022-11-20T04:29:43;101283.16;;;-1.72;100.00
58955;BME280;45815;52.334;5.024;2022-11-20T04:32:08;101288.28;;;-1.72;100.00
58955;BME280;45815;52.334;5.024;2022-11-20T04:34:33;101293.44;;;-1.72;100.00
58955;BME280;45815;52.334;5.024;2022-11-20T04:36:59;101288.28;;;-1.72;100.00
58955;BME280;45815;52.334;5.024;2022-11-20T04:39:25;101293.44;;;-1.72;100.00
58955;BME280;45815;52.334;5.024;2022-11-20T04:41:50;101288.84;;;-1.76;100.00
58955;BME280;45815;52.334;5.024;2022-11-20T04:44:35;101291.31;;;-1.78;100.00
58955;BME280;45815;52.334;5.024;2022-11-20T04:47:01;101287.06;;;-1.77;100.00
58955;BME280;45815;52.334;5.024;2022-11-20T04:49:26;101276.63;;;-1.79;100.00
58955;BME280;45815;52.334;5.024;2022-11-20T04:51:54;101275.97;;;-1.76;100.00
58955;BME280;45815;52.334;5.024;2022-11-20T04:54:20;101278.53;;;-1.76;100.00
58955;BME280;45815;52.334;5.024;2022-11-20T04:56:47;101280.66;;;-1.82;100.00
58955;BME280;45815;52.334;5.024;2022-11-20T04:59:13;101279.72;;;-1.95;100.00
58955;BME280;45815;52.334;5.024;2022-11-20T05:01:38;101265.44;;;-1.91;100.00
58955;BME280;45815;52.334;5.024;2022-11-20T05:04:04;101258.06;;;-1.86;100.00
58955;BME280;45815;52.334;5.024;2022-11-20T05:06:31;101256.50;;;-1.84;100.00
58955;BME280;45815;52.334;5.024;2022-11-20T05:08:57;101257.50;;;-1.82;100.00
58955;BME280;45815;52.334;5.024;2022-11-20T05:11:23;101254.69;;;-1.85;100.00
58955;BME280;45815;52.334;5.024;2022-11-20T05:13:49;101250.13;;;-1.89;100.00
58955;BME280;45815;52.334;5.024;2022-11-20T05:16:23;101245.97;;;-1.87;100.00
58955;BME280;45815;52.334;5.024;2022-11-20T05:18:54;101244.41;;;-1.85;100.00
58955;BME280;45815;52.334;5.024;2022-11-20T05:21:20;101249.53;;;-1.85;100.00
58955;BME280;45815;52.334;5.024;2022-11-20T05:23:46;101252.91;;;-1.86;100.00
58955;BME280;45815;52.334;5.024;2022-11-20T05:26:14;101248.44;;;-1.89;100.00
58955;BME280;45815;52.334;5.024;2022-11-20T05:28:40;101246.53;;;-1.92;100.00
58955;BME280;45815;52.334;5.024;2022-11-20T05:31:08;101250.66;;;-1.94;100.00
58955;BME280;45815;52.334;5.024;2022-11-20T05:33:35;101255.00;;;-1.93;100.00
58955;BME280;45815;52.334;5.024;2022-11-20T05:36:01;101255.81;;;-1.94;100.00
58955;BME280;45815;52.334;5.024;2022-11-20T05:38:26;101257.38;;;-1.96;100.00
58955;BME280;45815;52.334;5.024;2022-11-20T05:40:52;101253.09;;;-1.95;100.00
58955;BME280;45815;52.334;5.024;2022-11-20T05:43:17;101270.09;;;-1.97;100.00
58955;BME280;45815;52.334;5.024;2022-11-20T05:45:42;101264.72;;;-2.00;100.00
58955;BME280;45815;52.334;5.024;2022-11-20T05:48:16;101264.50;;;-2.03;100.00
58955;BME280;45815;52.334;5.024;2022-11-20T05:50:41;101261.81;;;-2.05;100.00
58955;BME280;45815;52.334;5.024;2022-11-20T05:53:07;101275.47;;;-2.06;100.00
58955;BME280;45815;52.334;5.024;2022-11-20T05:55:32;101279.47;;;-2.09;100.00
58955;BME280;45815;52.334;5.024;2022-11-20T05:57:57;101279.31;;;-2.11;100.00
58955;BME280;45815;52.334;5.024;2022-11-20T06:00:23;101274.19;;;-2.11;100.00
58955;BME280;45815;52.334;5.024;2022-11-20T06:02:48;101274.97;;;-2.12;100.00
58955;BME280;45815;52.334;5.024;2022-11-20T06:05:13;101277.56;;;-2.12;100.00
58955;BME280;45815;52.334;5.024;2022-11-20T06:07:39;101275.78;;;-2.13;100.00
58955;BME280;45815;52.334;5.024;2022-11-20T06:10:04;101270.50;;;-2.15;100.00
58955;BME280;45815;52.334;5.024;2022-11-20T06:12:32;101267.25;;;-2.12;100.00
58955;BME280;45815;52.334;5.024;2022-11-20T06:14:58;101266.72;;;-2.08;100.00
58955;BME280;45815;52.334;5.024;2022-11-20T06:17:23;101266.72;;;-2.08;100.00
58955;BME280;45815;52.334;5.024;2022-11-20T06:19:49;101271.88;;;-2.08;100.00
58955;BME280;45815;52.334;5.024;2022-11-20T06:22:14;101274.13;;;-2.01;100.00
58955;BME280;45815;52.334;5.024;2022-11-20T06:24:40;101275.81;;;-2.01;100.00
58955;BME280;45815;52.334;5.024;2022-11-20T06:27:05;101275.03;;;-2.00;100.00
58955;BME280;45815;52.334;5.024;2022-11-20T06:29:30;101265.63;;;-2.00;100.00
58955;BME280;45815;52.334;5.024;2022-11-20T06:31:56;101272.44;;;-2.00;100.00
58955;BME280;45815;52.334;5.024;2022-11-20T06:34:21;101264.72;;;-2.00;100.00
58955;BME280;45815;52.334;5.024;2022-11-20T06:36:46;101268.31;;;-1.98;100.00
58955;BME280;45815;52.334;5.024;2022-11-20T06:39:12;101250.53;;;-1.95;100.00
58955;BME280;45815;52.334;5.024;2022-11-20T06:41:37;101256.69;;;-1.93;100.00
58955;BME280;45815;52.334;5.024;2022-11-20T06:44:04;101262.31;;;-1.87;100.00
58955;BME280;45815;52.334;5.024;2022-11-20T06:46:30;101262.41;;;-1.85;100.00
58955;BME280;45815;52.334;5.024;2022-11-20T06:48:56;101255.97;;;-1.80;100.00
58955;BME280;45815;52.334;5.024;2022-11-20T06:51:23;101249.34;;;-1.77;100.00
58955;BME280;45815;52.334;5.024;2022-11-20T06:53:48;101251.78;;;-1.78;100.00
58955;BME280;45815;52.334;5.024;2022-11-20T06:56:13;101244.19;;;-1.77;100.00
58955;BME280;45815;52.334;5.024;2022-11-20T06:58:39;101246.78;;;-1.77;100.00
58955;BME280;45815;52.334;5.024;2022-11-20T07:01:10;101237.16;;;-1.79;100.00
58955;BME280;45815;52.334;5.024;2022-11-20T07:03:36;101241.50;;;-1.78;100.00
58955;BME280;45815;52.334;5.024;2022-11-20T07:06:03;101238.38;;;-1.74;100.00
58955;BME280;45815;52.334;5.024;2022-11-20T07:08:29;101233.47;;;-1.71;100.00
58955;BME280;45815;52.334;5.024;2022-11-20T07:10:59;101234.25;;;-1.72;100.00
58955;BME280;45815;52.334;5.024;2022-11-20T07:13:26;101229.09;;;-1.72;100.00
58955;BME280;45815;52.334;5.024;2022-11-20T07:15:51;101231.69;;;-1.72;100.00
58955;BME280;45815;52.334;5.024;2022-11-20T07:18:16;101225.50;;;-1.74;100.00
58955;BME280;45815;52.334;5.024;2022-11-20T07:20:42;101228.09;;;-1.74;100.00
58955;BME280;45815;52.334;5.024;2022-11-20T07:23:07;101225.31;;;-1.77;100.00
58955;BME280;45815;52.334;5.024;2022-11-20T07:25:32;101230.53;;;-1.76;100.00
58955;BME280;45815;52.334;5.024;2022-11-20T07:27:58;101224.75;;;-1.73;100.00
58955;BME280;45815;52.334;5.024;2022-11-20T07:30:24;101229.91;;;-1.73;100.00
58955;BME280;45815;52.334;5.024;2022-11-20T07:32:51;101231.69;;;-1.72;100.00
58955;BME280;45815;52.334;5.024;2022-11-20T07:35:17;101225.09;;;-1.68;100.00
58955;BME280;45815;52.334;5.024;2022-11-20T07:37:42;101234.81;;;-1.64;100.00
58955;BME280;45815;52.334;5.024;2022-11-20T07:40:08;101238.53;;;-1.61;100.00
58955;BME280;45815;52.334;5.024;2022-11-20T07:42:33;101237.72;;;-1.60;100.00
58955;BME280;45815;52.334;5.024;2022-11-20T07:45:00;101239.97;;;-1.53;100.00
58955;BME280;45815;52.334;5.024;2022-11-20T07:47:26;101232.50;;;-1.50;100.00
58955;BME280;45815;52.334;5.024;2022-11-20T07:49:51;101228.34;;;-1.47;100.00
58955;BME280;45815;52.334;5.024;2022-11-20T07:52:16;101227.44;;;-1.36;100.00
58955;BME280;45815;52.334;5.024;2022-11-20T07:54:42;101227.00;;;-1.19;100.00
58955;BME280;45815;52.334;5.024;2022-11-20T07:57:07;101224.97;;;-1.11;100.00
58955;BME280;45815;52.334;5.024;2022-11-20T07:59:32;101177.75;;;-1.35;100.00
58955;BME280;45815;52.334;5.024;2022-11-20T08:01:58;101217.34;;;-1.10;100.00
58955;BME280;45815;52.334;5.024;2022-11-20T08:04:23;101215.13;;;-1.05;100.00
58955;BME280;45815;52.334;5.024;2022-11-20T08:06:49;101209.28;;;-1.02;100.00
58955;BME280;45815;52.334;5.024;2022-11-20T08:09:14;101210.63;;;-0.96;100.00
58955;BME280;45815;52.334;5.024;2022-11-20T08:11:39;101206.34;;;-0.95;100.00
58955;BME280;45815;52.334;5.024;2022-11-20T08:14:24;101209.34;;;-0.89;100.00
58955;BME280;45815;52.334;5.024;2022-11-20T08:16:49;101204.31;;;-0.88;100.00
58955;BME280;45815;52.334;5.024;2022-11-20T08:19:17;101203.63;;;-0.85;100.00
58955;BME280;45815;52.334;5.024;2022-11-20T08:21:43;101202.25;;;-0.80;100.00
58955;BME280;45815;52.334;5.024;2022-11-20T08:24:09;101203.06;;;-0.81;100.00
58955;BME280;45815;52.334;5.024;2022-11-20T08:26:36;101201.50;;;-0.79;100.00
58955;BME280;45815;52.334;5.024;2022-11-20T08:29:02;101205.16;;;-0.75;100.00
58955;BME280;45815;52.334;5.024;2022-11-20T08:31:28;101204.72;;;-0.70;100.00
58955;BME280;45815;52.334;5.024;2022-11-20T08:33:54;101210.97;;;-0.66;100.00
58955;BME280;45815;52.334;5.024;2022-11-20T08:36:20;101213.09;;;-0.60;100.00
58955;BME280;45815;52.334;5.024;2022-11-20T08:38:51;101207.56;;;-0.53;100.00
58955;BME280;45815;52.334;5.024;2022-11-20T08:41:17;101204.19;;;-0.52;100.00
58955;BME280;45815;52.334;5.024;2022-11-20T08:43:53;101209.09;;;-0.44;100.00
58955;BME280;45815;52.334;5.024;2022-11-20T08:46:19;101208.59;;;-0.38;100.00
58955;BME280;45815;52.334;5.024;2022-11-20T08:48:45;101201.19;;;-0.33;100.00
58955;BME280;45815;52.334;5.024;2022-11-20T08:51:11;101204.09;;;-0.29;100.00
58955;BME280;45815;52.334;5.024;2022-11-20T08:53:37;101209.66;;;-0.23;100.00
58955;BME280;45815;52.334;5.024;2022-11-20T08:56:03;101206.72;;;-0.15;100.00
58955;BME280;45815;52.334;5.024;2022-11-20T08:58:29;101209.13;;;-0.05;100.00
58955;BME280;45815;52.334;5.024;2022-11-20T09:00:54;101207.25;;;0.06;100.00
58955;BME280;45815;52.334;5.024;2022-11-20T09:03:20;101193.09;;;0.12;100.00
58955;BME280;45815;52.334;5.024;2022-11-20T09:05:45;101193.88;;;0.11;100.00
58955;BME280;45815;52.334;5.024;2022-11-20T09:08:10;101186.94;;;0.10;100.00
58955;BME280;45815;52.334;5.024;2022-11-20T09:10:36;101180.50;;;0.17;100.00
58955;BME280;45815;52.334;5.024;2022-11-20T09:13:05;101172.81;;;0.18;100.00
58955;BME280;45815;52.334;5.024;2022-11-20T09:15:30;101167.47;;;0.15;100.00
58955;BME280;45815;52.334;5.024;2022-11-20T09:17:58;101178.28;;;0.23;100.00
58955;BME280;45815;52.334;5.024;2022-11-20T09:20:24;101168.56;;;0.32;100.00
58955;BME280;45815;52.334;5.024;2022-11-20T09:22:50;101161.94;;;0.36;100.00
58955;BME280;45815;52.334;5.024;2022-11-20T09:25:16;101150.63;;;0.47;100.00
58955;BME280;45815;52.334;5.024;2022-11-20T09:27:41;101159.72;;;0.55;100.00
58955;BME280;45815;52.334;5.024;2022-11-20T09:30:09;101158.34;;;0.60;100.00
58955;BME280;45815;52.334;5.024;2022-11-20T09:32:34;101156.75;;;0.62;100.00
58955;BME280;45815;52.334;5.024;2022-11-20T09:35:01;101144.81;;;0.65;100.00
58955;BME280;45815;52.334;5.024;2022-11-20T09:37:26;101150.69;;;0.75;100.00
58955;BME280;45815;52.334;5.024;2022-11-20T09:39:51;101149.56;;;0.85;100.00
58955;BME280;45815;52.334;5.024;2022-11-20T09:45:10;101140.81;;;0.96;100.00
58955;BME280;45815;52.334;5.024;2022-11-20T09:53:20;101127.41;;;1.17;100.00
58955;BME280;45815;52.334;5.024;2022-11-20T09:55:50;101126.19;;;1.25;100.00
58955;BME280;45815;52.334;5.024;2022-11-20T10:00:46;101127.19;;;1.42;100.00
58955;BME280;45815;52.334;5.024;2022-11-20T10:06:44;101106.50;;;1.42;100.00
58955;BME280;45815;52.334;5.024;2022-11-20T10:23:12;101067.69;;;2.01;100.00
58955;BME280;45815;52.334;5.024;2022-11-20T10:31:02;101061.00;;;2.05;100.00
58955;BME280;45815;52.334;5.024;2022-11-20T10:33:32;101041.28;;;2.07;100.00
58955;BME280;45815;52.334;5.024;2022-11-20T10:36:34;101051.28;;;2.01;100.00
58955;BME280;45815;52.334;5.024;2022-11-20T10:39:06;101044.66;;;2.06;100.00
58955;BME280;45815;52.334;5.024;2022-11-20T10:41:44;101046.47;;;2.07;100.00
58955;BME280;45815;52.334;5.024;2022-11-20T10:44:21;101040.34;;;2.21;100.00
58955;BME280;45815;52.334;5.024;2022-11-20T10:47:08;101042.84;;;2.20;100.00
58955;BME280;45815;52.334;5.024;2022-11-20T10:49:35;101030.03;;;2.38;100.00
58955;BME280;45815;52.334;5.024;2022-11-20T10:52:10;101029.06;;;2.36;100.00
58955;BME280;45815;52.334;5.024;2022-11-20T11:00:25;100999.06;;;2.24;100.00
58955;BME280;45815;52.334;5.024;2022-11-20T11:02:52;101004.25;;;2.24;100.00
58955;BME280;45815;52.334;5.024;2022-11-20T11:05:48;100986.78;;;2.20;100.00
58955;BME280;45815;52.334;5.024;2022-11-20T11:08:18;100997.47;;;2.26;100.00
58955;BME280;45815;52.334;5.024;2022-11-20T11:10:49;100973.84;;;2.20;100.00
58955;BME280;45815;52.334;5.024;2022-11-20T11:13:24;100987.84;;;2.24;100.00
58955;BME280;45815;52.334;5.024;2022-11-20T11:15:51;100992.91;;;2.22;100.00
58955;BME280;45815;52.334;5.024;2022-11-20T11:18:24;100986.44;;;2.14;100.00
58955;BME280;45815;52.334;5.024;2022-11-20T11:20:51;100972.88;;;2.18;100.00
58955;BME280;45815;52.334;5.024;2022-11-20T11:23:41;100970.28;;;2.18;100.00
58955;BME280;45815;52.334;5.024;2022-11-20T11:26:19;100973.84;;;2.20;100.00
58955;BME280;45815;52.334;5.024;2022-11-20T11:28:58;100973.19;;;2.24;100.00
58955;BME280;45815;52.334;5.024;2022-11-20T11:31:29;100953.19;;;2.22;100.00
58955;BME280;45815;52.334;5.024;2022-11-20T11:34:11;100948.50;;;2.31;100.00
58955;BME280;45815;52.334;5.024;2022-11-20T11:36:37;100958.41;;;2.54;100.00
58955;BME280;45815;52.334;5.024;2022-11-20T11:39:05;100950.81;;;2.58;100.00
58955;BME280;45815;52.334;5.024;2022-11-20T11:41:34;100937.13;;;2.60;100.00
58955;BME280;45815;52.334;5.024;2022-11-20T11:46:59;100929.66;;;2.66;100.00
58955;BME280;45815;52.334;5.024;2022-11-20T11:49:25;100925.59;;;2.71;100.00
58955;BME280;45815;52.334;5.024;2022-11-20T11:52:16;100920.41;;;2.71;100.00
58955;BME280;45815;52.334;5.024;2022-11-20T11:54:58;100926.91;;;2.80;100.00
58955;BME280;45815;52.334;5.024;2022-11-20T12:02:42;100903.44;;;2.94;100.00
58955;BME280;45815;52.334;5.024;2022-11-20T12:05:23;100908.06;;;3.00;100.00
58955;BME280;45815;52.334;5.024;2022-11-20T12:16:20;100901.16;;;3.01;100.00
58955;BME280;45815;52.334;5.024;2022-11-20T12:18:49;100898.66;;;3.02;100.00
58955;BME280;45815;52.334;5.024;2022-11-20T12:24:32;100885.03;;;3.06;100.00
58955;BME280;45815;52.334;5.024;2022-11-20T12:27:22;100869.22;;;3.02;100.00
58955;BME280;45815;52.334;5.024;2022-11-20T12:30:07;100864.72;;;3.15;100.00
58955;BME280;45815;52.334;5.024;2022-11-20T12:47:34;100838.44;;;3.26;100.00
58955;BME280;45815;52.334;5.024;2022-11-20T12:52:56;100820.03;;;3.39;100.00
58955;BME280;45815;52.334;5.024;2022-11-20T12:55:39;100809.81;;;3.42;100.00
58955;BME280;45815;52.334;5.024;2022-11-20T13:01:03;100795.41;;;3.49;100.00
58955;BME280;45815;52.334;5.024;2022-11-20T13:03:39;100776.09;;;3.42;100.00
58955;BME280;45815;52.334;5.024;2022-11-20T13:06:17;100766.94;;;3.50;100.00
58955;BME280;45815;52.334;5.024;2022-11-20T13:08:52;100759.16;;;3.50;100.00
58955;BME280;45815;52.334;5.024;2022-11-20T13:11:37;100773.50;;;3.42;100.00
58955;BME280;45815;52.334;5.024;2022-11-20T13:16:44;100780.75;;;3.49;100.00
58955;BME280;45815;52.334;5.024;2022-11-20T13:19:16;100798.84;;;3.48;100.00
58955;BME280;45815;52.334;5.024;2022-11-20T13:21:45;100808.78;;;3.38;100.00
58955;BME280;45815;52.334;5.024;2022-11-20T13:29:34;100781.81;;;3.35;100.00
58955;BME280;45815;52.334;5.024;2022-11-20T13:34:31;100771.44;;;3.35;100.00
58955;BME280;45815;52.334;5.024;2022-11-20T13:36:57;100763.25;;;3.45;100.00
58955;BME280;45815;52.334;5.024;2022-11-20T13:39:43;100768.00;;;3.54;100.00
58955;BME280;45815;52.334;5.024;2022-11-20T13:44:44;100751.72;;;3.58;100.00
58955;BME280;45815;52.334;5.024;2022-11-20T13:49:46;100737.72;;;3.54;100.00
58955;BME280;45815;52.334;5.024;2022-11-20T13:52:55;100730.63;;;3.50;100.00
58955;BME280;45815;52.334;5.024;2022-11-20T13:58:03;100746.19;;;3.50;100.00
58955;BME280;45815;52.334;5.024;2022-11-20T14:00:31;100731.69;;;3.36;100.00
58955;BME280;45815;52.334;5.024;2022-11-20T14:05:35;100716.47;;;3.44;100.00
58955;BME280;45815;52.334;5.024;2022-11-20T14:08:03;100711.50;;;3.48;100.00
58955;BME280;45815;52.334;5.024;2022-11-20T14:10:30;100693.28;;;3.47;100.00
58955;BME280;45815;52.334;5.024;2022-11-20T14:13:17;100689.84;;;3.48;100.00
58955;BME280;45815;52.334;5.024;2022-11-20T14:15:43;100671.13;;;3.55;100.00
58955;BME280;45815;52.334;5.024;2022-11-20T14:18:19;100672.84;;;3.54;100.00
58955;BME280;45815;52.334;5.024;2022-11-20T14:20:47;100661.94;;;3.62;100.00
58955;BME280;45815;52.334;5.024;2022-11-20T14:23:12;100656.84;;;3.65;100.00
58955;BME280;45815;52.334;5.024;2022-11-20T14:25:42;100657.91;;;3.68;100.00
58955;BME280;45815;52.334;5.024;2022-11-20T14:28:17;100666.66;;;3.70;100.00
58955;BME280;45815;52.334;5.024;2022-11-20T14:30:47;100665.88;;;3.53;100.00
58955;BME280;45815;52.334;5.024;2022-11-20T14:33:14;100679.81;;;3.55;100.00
58955;BME280;45815;52.334;5.024;2022-11-20T14:35:51;100678.50;;;3.46;100.00
58955;BME280;45815;52.334;5.024;2022-11-20T14:38:21;100669.19;;;3.49;100.00